sensor_id;sensor_type;location;lat;lon;timestamp;temperature;humidity
22676;DHT22;12521;43.310;21.876;2023-04-01T00:04:18;13.9;94.0
22676;DHT22;12521;43.310;21.876;2023-04-01T00:08:55;13.9;94.0
22676;DHT22;12521;43.310;21.876;2023-04-01T00:13:32;13.8;94.0
22676;DHT22;12521;43.310;21.876;2023-04-01T00:18:10;13.8;94.0
22676;DHT22;12521;43.310;21.876;2023-04-01T00:22:49;13.8;95.0
22676;DHT22;12521;43.310;21.876;2023-04-01T00:27:26;13.8;95.0
22676;DHT22;12521;43.310;21.876;2023-04-01T00:32:03;13.8;93.0
22676;DHT22;12521;43.310;21.876;2023-04-01T00:36:41;13.8;93.0
22676;DHT22;12521;43.310;21.876;2023-04-01T00:41:20;13.9;91.0
22676;DHT22;12521;43.310;21.876;2023-04-01T00:45:57;13.9;91.0
22676;DHT22;12521;43.310;21.876;2023-04-01T00:50:37;14.0;91.0
22676;DHT22;12521;43.310;21.876;2023-04-01T00:55:39;14.0;91.0
22676;DHT22;12521;43.310;21.876;2023-04-01T01:00:36;14.1;91.0
22676;DHT22;12521;43.310;21.876;2023-04-01T01:05:19;14.1;91.0
22676;DHT22;12521;43.310;21.876;2023-04-01T01:10:49;14.0;93.0
22676;DHT22;12521;43.310;21.876;2023-04-01T01:15:34;14.0;93.0
22676;DHT22;12521;43.310;21.876;2023-04-01T01:21:04;14.0;94.0
22676;DHT22;12521;43.310;21.876;2023-04-01T01:26:34;14.0;94.0
22676;DHT22;12521;43.310;21.876;2023-04-01T01:31:37;14.0;95.0
22676;DHT22;12521;43.310;21.876;2023-04-01T01:36:33;14.0;95.0
22676;DHT22;12521;43.310;21.876;2023-04-01T01:41:16;13.9;96.0
22676;DHT22;12521;43.310;21.876;2023-04-01T01:46:05;13.9;96.0
22676;DHT22;12521;43.310;21.876;2023-04-01T01:50:52;13.8;96.0
22676;DHT22;12521;43.310;21.876;2023-04-01T01:55:35;13.8;96.0
22676;DHT22;12521;43.310;21.876;2023-04-01T02:00:18;13.8;96.0
22676;DHT22;12521;43.310;21.876;2023-04-01T02:04:58;13.6;96.0
22676;DHT22;12521;43.310;21.876;2023-04-01T02:09:38;13.6;96.0
22676;DHT22;12521;43.310;21.876;2023-04-01T02:14:20;13.6;96.0
22676;DHT22;12521;43.310;21.876;2023-04-01T02:19:06;13.6;96.0
22676;DHT22;12521;43.310;21.876;2023-04-01T02:23:47;13.5;96.0
22676;DHT22;12521;43.310;21.876;2023-04-01T02:28:27;13.5;96.0
22676;DHT22;12521;43.310;21.876;2023-04-01T02:33:07;13.4;96.0
22676;DHT22;12521;43.310;21.876;2023-04-01T02:37:46;13.4;96.0
22676;DHT22;12521;43.310;21.876;2023-04-01T02:42:25;13.3;96.0
22676;DHT22;12521;43.310;21.876;2023-04-01T02:47:02;13.3;96.0
22676;DHT22;12521;43.310;21.876;2023-04-01T02:51:39;13.2;96.0
22676;DHT22;12521;43.310;21.876;2023-04-01T02:56:16;13.2;96.0
22676;DHT22;12521;43.310;21.876;2023-04-01T03:00:52;13.1;96.0
22676;DHT22;12521;43.310;21.876;2023-04-01T03:05:29;13.1;96.0
22676;DHT22;12521;43.310;21.876;2023-04-01T03:10:08;13.1;96.0
22676;DHT22;12521;43.310;21.876;2023-04-01T03:14:46;13.0;96.0
22676;DHT22;12521;43.310;21.876;2023-04-01T03:19:22;13.0;96.0
22676;DHT22;12521;43.310;21.876;2023-04-01T03:23:59;12.9;96.0
22676;DHT22;12521;43.310;21.876;2023-04-01T03:28:37;12.9;96.0
22676;DHT22;12521;43.310;21.876;2023-04-01T03:33:13;12.9;96.0
22676;DHT22;12521;43.310;21.876;2023-04-01T03:37:51;12.9;96.0
22676;DHT22;12521;43.310;21.876;2023-04-01T03:42:30;12.9;96.0
22676;DHT22;12521;43.310;21.876;2023-04-01T03:47:06;12.9;96.0
22676;DHT22;12521;43.310;21.876;2023-04-01T03:51:43;13.0;96.0
22676;DHT22;12521;43.310;21.876;2023-04-01T03:56:20;13.0;96.0
22676;DHT22;12521;43.310;21.876;2023-04-01T04:00:56;13.0;96.0
22676;DHT22;12521;43.310;21.876;2023-04-01T04:05:33;13.0;96.0
22676;DHT22;12521;43.310;21.876;2023-04-01T04:10:10;13.0;96.0
22676;DHT22;12521;43.310;21.876;2023-04-01T04:14:46;13.0;96.0
22676;DHT22;12521;43.310;21.876;2023-04-01T04:19:22;13.0;96.0
22676;DHT22;12521;43.310;21.876;2023-04-01T04:24:00;12.9;96.0
22676;DHT22;12521;43.310;21.876;2023-04-01T04:28:39;12.9;96.0
22676;DHT22;12521;43.310;21.876;2023-04-01T04:33:16;12.8;96.0
22676;DHT22;12521;43.310;21.876;2023-04-01T04:37:53;12.8;96.0
22676;DHT22;12521;43.310;21.876;2023-04-01T04:42:29;12.8;96.0
22676;DHT22;12521;43.310;21.876;2023-04-01T04:47:06;12.8;96.0
22676;DHT22;12521;43.310;21.876;2023-04-01T04:51:42;12.8;96.0
22676;DHT22;12521;43.310;21.876;2023-04-01T04:56:21;12.8;96.0
22676;DHT22;12521;43.310;21.876;2023-04-01T05:00:58;12.8;96.0
22676;DHT22;12521;43.310;21.876;2023-04-01T05:05:34;12.8;96.0
22676;DHT22;12521;43.310;21.876;2023-04-01T05:10:10;12.8;96.0
22676;DHT22;12521;43.310;21.876;2023-04-01T05:14:46;12.8;96.0
22676;DHT22;12521;43.310;21.876;2023-04-01T05:19:22;12.8;96.0
22676;DHT22;12521;43.310;21.876;2023-04-01T05:23:59;12.7;96.0
22676;DHT22;12521;43.310;21.876;2023-04-01T05:28:36;12.7;96.0
22676;DHT22;12521;43.310;21.876;2023-04-01T05:33:15;12.6;96.0
22676;DHT22;12521;43.310;21.876;2023-04-01T05:37:52;12.6;96.0
22676;DHT22;12521;43.310;21.876;2023-04-01T05:42:29;12.6;96.0
22676;DHT22;12521;43.310;21.876;2023-04-01T05:47:06;12.6;96.0
22676;DHT22;12521;43.310;21.876;2023-04-01T05:51:43;12.6;96.0
22676;DHT22;12521;43.310;21.876;2023-04-01T05:56:20;12.6;96.0
22676;DHT22;12521;43.310;21.876;2023-04-01T06:01:02;12.6;96.0
22676;DHT22;12521;43.310;21.876;2023-04-01T06:05:45;12.6;96.0
22676;DHT22;12521;43.310;21.876;2023-04-01T06:10:36;12.6;96.0
22676;DHT22;12521;43.310;21.876;2023-04-01T06:15:51;12.7;96.0
22676;DHT22;12521;43.310;21.876;2023-04-01T06:21:01;12.8;96.0
22676;DHT22;12521;43.310;21.876;2023-04-01T06:26:09;12.8;96.0
22676;DHT22;12521;43.310;21.876;2023-04-01T06:31:10;12.9;96.0
22676;DHT22;12521;43.310;21.876;2023-04-01T06:36:25;12.9;96.0
22676;DHT22;12521;43.310;21.876;2023-04-01T06:41:56;13.0;96.0
22676;DHT22;12521;43.310;21.876;2023-04-01T06:46:58;13.0;96.0
22676;DHT22;12521;43.310;21.876;2023-04-01T06:52:06;13.2;96.0
22676;DHT22;12521;43.310;21.876;2023-04-01T06:57:19;13.2;96.0
22676;DHT22;12521;43.310;21.876;2023-04-01T07:02:25;13.4;96.0
22676;DHT22;12521;43.310;21.876;2023-04-01T07:07:30;13.4;96.0
22676;DHT22;12521;43.310;21.876;2023-04-01T07:12:36;13.5;96.0
22676;DHT22;12521;43.310;21.876;2023-04-01T07:17:32;13.5;96.0
22676;DHT22;12521;43.310;21.876;2023-04-01T07:22:29;13.6;96.0
22676;DHT22;12521;43.310;21.876;2023-04-01T07:27:15;13.6;96.0
22676;DHT22;12521;43.310;21.876;2023-04-01T07:32:14;13.6;96.0
22676;DHT22;12521;43.310;21.876;2023-04-01T07:37:28;13.6;96.0
22676;DHT22;12521;43.310;21.876;2023-04-01T07:42:29;13.6;96.0
22676;DHT22;12521;43.310;21.876;2023-04-01T07:47:41;13.6;96.0
22676;DHT22;12521;43.310;21.876;2023-04-01T07:52:48;13.6;96.0
22676;DHT22;12521;43.310;21.876;2023-04-01T07:57:51;13.6;96.0
22676;DHT22;12521;43.310;21.876;2023-04-01T08:03:03;13.5;96.0
22676;DHT22;12521;43.310;21.876;2023-04-01T08:08:22;13.5;96.0
22676;DHT22;12521;43.310;21.876;2023-04-01T08:13:50;13.5;96.0
22676;DHT22;12521;43.310;21.876;2023-04-01T08:19:18;13.5;96.0
22676;DHT22;12521;43.310;21.876;2023-04-01T08:24:42;13.5;96.0
22676;DHT22;12521;43.310;21.876;2023-04-01T08:29:42;13.5;96.0
22676;DHT22;12521;43.310;21.876;2023-04-01T08:34:45;13.5;96.0
22676;DHT22;12521;43.310;21.876;2023-04-01T08:39:55;13.5;96.0
22676;DHT22;12521;43.310;21.876;2023-04-01T08:45:35;13.5;96.0
22676;DHT22;12521;43.310;21.876;2023-04-01T08:51:41;13.5;96.0
22676;DHT22;12521;43.310;21.876;2023-04-01T08:57:04;13.5;96.0
22676;DHT22;12521;43.310;21.876;2023-04-01T09:02:25;13.5;96.0
22676;DHT22;12521;43.310;21.876;2023-04-01T09:07:43;13.5;96.0
22676;DHT22;12521;43.310;21.876;2023-04-01T09:12:57;13.4;96.0
22676;DHT22;12521;43.310;21.876;2023-04-01T09:18:18;13.4;96.0
22676;DHT22;12521;43.310;21.876;2023-04-01T09:23:35;13.3;96.0
22676;DHT22;12521;43.310;21.876;2023-04-01T09:28:42;13.3;96.0
22676;DHT22;12521;43.310;21.876;2023-04-01T09:34:22;13.2;96.0
22676;DHT22;12521;43.310;21.876;2023-04-01T09:39:37;13.2;96.0
22676;DHT22;12521;43.310;21.876;2023-04-01T09:44:57;13.1;96.0
22676;DHT22;12521;43.310;21.876;2023-04-01T09:50:15;13.1;96.0
22676;DHT22;12521;43.310;21.876;2023-04-01T09:58:32;13.0;96.0
22676;DHT22;12521;43.310;21.876;2023-04-01T10:08:55;13.0;96.0
22676;DHT22;12521;43.310;21.876;2023-04-01T10:22:02;13.0;96.0
22676;DHT22;12521;43.310;21.876;2023-04-01T10:27:49;12.9;96.0
22676;DHT22;12521;43.310;21.876;2023-04-01T10:33:58;12.8;96.0
22676;DHT22;12521;43.310;21.876;2023-04-01T10:42:11;12.8;96.0
22676;DHT22;12521;43.310;21.876;2023-04-01T10:51:10;12.8;96.0
22676;DHT22;12521;43.310;21.876;2023-04-01T10:56:39;12.8;96.0
22676;DHT22;12521;43.310;21.876;2023-04-01T11:02:02;12.9;96.0
22676;DHT22;12521;43.310;21.876;2023-04-01T11:09:31;12.9;96.0
22676;DHT22;12521;43.310;21.876;2023-04-01T11:18:11;13.2;96.0
22676;DHT22;12521;43.310;21.876;2023-04-01T11:25:50;13.5;96.0
22676;DHT22;12521;43.310;21.876;2023-04-01T11:31:35;14.2;96.0
22676;DHT22;12521;43.310;21.876;2023-04-01T11:36:46;14.2;96.0
22676;DHT22;12521;43.310;21.876;2023-04-01T11:41:46;14.8;96.0
22676;DHT22;12521;43.310;21.876;2023-04-01T11:46:51;14.8;96.0
22676;DHT22;12521;43.310;21.876;2023-04-01T11:52:11;15.2;96.0
22676;DHT22;12521;43.310;21.876;2023-04-01T11:57:32;15.2;96.0
22676;DHT22;12521;43.310;21.876;2023-04-01T12:02:42;15.7;96.0
22676;DHT22;12521;43.310;21.876;2023-04-01T12:08:02;15.7;96.0
22676;DHT22;12521;43.310;21.876;2023-04-01T12:13:38;15.6;96.0
22676;DHT22;12521;43.310;21.876;2023-04-01T12:18:46;15.6;96.0
22676;DHT22;12521;43.310;21.876;2023-04-01T12:24:29;15.6;96.0
22676;DHT22;12521;43.310;21.876;2023-04-01T12:31:57;15.8;96.0
22676;DHT22;12521;43.310;21.876;2023-04-01T12:37:13;15.8;96.0
22676;DHT22;12521;43.310;21.876;2023-04-01T12:42:19;16.1;96.0
22676;DHT22;12521;43.310;21.876;2023-04-01T12:48:01;16.1;96.0
22676;DHT22;12521;43.310;21.876;2023-04-01T12:56:32;16.2;96.0
22676;DHT22;12521;43.310;21.876;2023-04-01T13:02:19;16.3;96.0
22676;DHT22;12521;43.310;21.876;2023-04-01T13:08:04;16.3;96.0
22676;DHT22;12521;43.310;21.876;2023-04-01T13:13:45;16.5;96.0
22676;DHT22;12521;43.310;21.876;2023-04-01T13:19:25;16.5;96.0
22676;DHT22;12521;43.310;21.876;2023-04-01T13:24:38;16.7;96.0
22676;DHT22;12521;43.310;21.876;2023-04-01T13:29:35;16.7;96.0
22676;DHT22;12521;43.310;21.876;2023-04-01T13:34:39;16.2;96.0
22676;DHT22;12521;43.310;21.876;2023-04-01T13:40:36;16.2;96.0
22676;DHT22;12521;43.310;21.876;2023-04-01T13:46:05;15.8;96.0
22676;DHT22;12521;43.310;21.876;2023-04-01T13:51:37;14.4;96.0
22676;DHT22;12521;43.310;21.876;2023-04-01T13:57:05;14.4;96.0
22676;DHT22;12521;43.310;21.876;2023-04-01T14:02:51;12.9;96.0
22676;DHT22;12521;43.310;21.876;2023-04-01T14:08:39;12.9;96.0
22676;DHT22;12521;43.310;21.876;2023-04-01T14:14:23;13.1;96.0
22676;DHT22;12521;43.310;21.876;2023-04-01T14:20:19;13.1;96.0
22676;DHT22;12521;43.310;21.876;2023-04-01T14:25:41;13.3;96.0
22676;DHT22;12521;43.310;21.876;2023-04-01T14:33:17;13.4;96.0
22676;DHT22;12521;43.310;21.876;2023-04-01T14:38:38;13.4;96.0
22676;DHT22;12521;43.310;21.876;2023-04-01T14:44:05;13.4;96.0
22676;DHT22;12521;43.310;21.876;2023-04-01T14:49:32;13.4;96.0
22676;DHT22;12521;43.310;21.876;2023-04-01T14:54:30;13.5;96.0
22676;DHT22;12521;43.310;21.876;2023-04-01T14:59:29;13.5;96.0
22676;DHT22;12521;43.310;21.876;2023-04-01T15:04:40;13.6;96.0
22676;DHT22;12521;43.310;21.876;2023-04-01T15:10:04;13.6;96.0
22676;DHT22;12521;43.310;21.876;2023-04-01T15:16:05;13.4;96.0
22676;DHT22;12521;43.310;21.876;2023-04-01T15:21:27;13.3;96.0
22676;DHT22;12521;43.310;21.876;2023-04-01T15:27:19;13.3;96.0
22676;DHT22;12521;43.310;21.876;2023-04-01T15:32:48;12.9;96.0
22676;DHT22;12521;43.310;21.876;2023-04-01T15:38:33;12.9;96.0
22676;DHT22;12521;43.310;21.876;2023-04-01T15:43:41;12.5;96.0
22676;DHT22;12521;43.310;21.876;2023-04-01T15:48:50;12.5;96.0
22676;DHT22;12521;43.310;21.876;2023-04-01T15:54:11;12.3;96.0
22676;DHT22;12521;43.310;21.876;2023-04-01T15:59:53;12.3;96.0
22676;DHT22;12521;43.310;21.876;2023-04-01T16:04:58;12.1;96.0
22676;DHT22;12521;43.310;21.876;2023-04-01T16:10:09;12.1;96.0
22676;DHT22;12521;43.310;21.876;2023-04-01T16:15:28;12.0;96.0
22676;DHT22;12521;43.310;21.876;2023-04-01T16:20:26;12.0;96.0
22676;DHT22;12521;43.310;21.876;2023-04-01T16:25:40;11.8;96.0
22676;DHT22;12521;43.310;21.876;2023-04-01T16:30:55;11.8;96.0
22676;DHT22;12521;43.310;21.876;2023-04-01T16:35:59;11.8;96.0
22676;DHT22;12521;43.310;21.876;2023-04-01T16:41:17;11.8;96.0
22676;DHT22;12521;43.310;21.876;2023-04-01T16:46:30;11.7;96.0
22676;DHT22;12521;43.310;21.876;2023-04-01T16:51:18;11.7;96.0
22676;DHT22;12521;43.310;21.876;2023-04-01T16:56:11;11.6;96.0
22676;DHT22;12521;43.310;21.876;2023-04-01T17:01:07;11.6;96.0
22676;DHT22;12521;43.310;21.876;2023-04-01T17:06:19;11.6;96.0
22676;DHT22;12521;43.310;21.876;2023-04-01T17:11:21;11.6;96.0
22676;DHT22;12521;43.310;21.876;2023-04-01T17:16:44;11.6;96.0
22676;DHT22;12521;43.310;21.876;2023-04-01T17:22:00;11.7;96.0
22676;DHT22;12521;43.310;21.876;2023-04-01T17:27:01;11.7;96.0
22676;DHT22;12521;43.310;21.876;2023-04-01T17:32:07;11.6;96.0
22676;DHT22;12521;43.310;21.876;2023-04-01T17:37:22;11.6;96.0
22676;DHT22;12521;43.310;21.876;2023-04-01T17:42:52;11.5;96.0
22676;DHT22;12521;43.310;21.876;2023-04-01T17:48:16;11.5;96.0
22676;DHT22;12521;43.310;21.876;2023-04-01T17:53:41;11.4;96.0
22676;DHT22;12521;43.310;21.876;2023-04-01T17:59:19;11.4;96.0
22676;DHT22;12521;43.310;21.876;2023-04-01T18:04:56;11.3;96.0
22676;DHT22;12521;43.310;21.876;2023-04-01T18:10:55;11.3;96.0
22676;DHT22;12521;43.310;21.876;2023-04-01T18:16:33;11.2;96.0
22676;DHT22;12521;43.310;21.876;2023-04-01T18:22:17;11.2;96.0
22676;DHT22;12521;43.310;21.876;2023-04-01T18:27:22;11.2;96.0
22676;DHT22;12521;43.310;21.876;2023-04-01T18:32:24;11.1;96.0
22676;DHT22;12521;43.310;21.876;2023-04-01T18:37:23;11.1;96.0
22676;DHT22;12521;43.310;21.876;2023-04-01T18:42:28;11.0;96.0
22676;DHT22;12521;43.310;21.876;2023-04-01T18:47:35;11.0;96.0
22676;DHT22;12521;43.310;21.876;2023-04-01T18:52:26;11.0;96.0
22676;DHT22;12521;43.310;21.876;2023-04-01T18:57:16;11.0;96.0
22676;DHT22;12521;43.310;21.876;2023-04-01T19:02:05;11.0;96.0
22676;DHT22;12521;43.310;21.876;2023-04-01T19:07:46;11.0;96.0
22676;DHT22;12521;43.310;21.876;2023-04-01T19:12:43;11.0;96.0
22676;DHT22;12521;43.310;21.876;2023-04-01T19:18:25;11.0;96.0
22676;DHT22;12521;43.310;21.876;2023-04-01T19:24:25;11.0;96.0
22676;DHT22;12521;43.310;21.876;2023-04-01T19:30:27;11.0;96.0
22676;DHT22;12521;43.310;21.876;2023-04-01T19:35:44;11.0;96.0
22676;DHT22;12521;43.310;21.876;2023-04-01T19:40:55;11.0;96.0
22676;DHT22;12521;43.310;21.876;2023-04-01T19:46:11;10.9;96.0
22676;DHT22;12521;43.310;21.876;2023-04-01T19:51:13;10.9;96.0
22676;DHT22;12521;43.310;21.876;2023-04-01T19:56:16;10.9;96.0
22676;DHT22;12521;43.310;21.876;2023-04-01T20:01:00;10.9;96.0
22676;DHT22;12521;43.310;21.876;2023-04-01T20:05:58;10.9;96.0
22676;DHT22;12521;43.310;21.876;2023-04-01T20:11:03;10.9;96.0
22676;DHT22;12521;43.310;21.876;2023-04-01T20:16:07;10.6;96.0
22676;DHT22;12521;43.310;21.876;2023-04-01T20:20:59;10.6;96.0
22676;DHT22;12521;43.310;21.876;2023-04-01T20:26:02;10.3;96.0
22676;DHT22;12521;43.310;21.876;2023-04-01T20:31:10;10.3;96.0
22676;DHT22;12521;43.310;21.876;2023-04-01T20:36:21;10.2;96.0
22676;DHT22;12521;43.310;21.876;2023-04-01T20:41:40;10.0;96.0
22676;DHT22;12521;43.310;21.876;2023-04-01T20:47:30;10.0;96.0
22676;DHT22;12521;43.310;21.876;2023-04-01T20:53:12;10.0;96.0
22676;DHT22;12521;43.310;21.876;2023-04-01T20:58:29;10.0;96.0
22676;DHT22;12521;43.310;21.876;2023-04-01T21:04:22;10.0;96.0
22676;DHT22;12521;43.310;21.876;2023-04-01T21:09:45;10.0;96.0
22676;DHT22;12521;43.310;21.876;2023-04-01T21:15:11;10.0;96.0
22676;DHT22;12521;43.310;21.876;2023-04-01T21:20:58;10.0;96.0
22676;DHT22;12521;43.310;21.876;2023-04-01T21:26:52;9.9;96.0
22676;DHT22;12521;43.310;21.876;2023-04-01T21:32:18;9.8;96.0
22676;DHT22;12521;43.310;21.876;2023-04-01T21:37:58;9.8;96.0
22676;DHT22;12521;43.310;21.876;2023-04-01T21:43:41;9.6;96.0
22676;DHT22;12521;43.310;21.876;2023-04-01T21:50:04;9.6;96.0
22676;DHT22;12521;43.310;21.876;2023-04-01T21:59:45;9.4;96.0
22676;DHT22;12521;43.310;21.876;2023-04-01T22:05:06;9.1;96.0
22676;DHT22;12521;43.310;21.876;2023-04-01T22:10:24;9.1;96.0
22676;DHT22;12521;43.310;21.876;2023-04-01T22:15:50;9.0;96.0
22676;DHT22;12521;43.310;21.876;2023-04-01T22:21:06;9.0;96.0
22676;DHT22;12521;43.310;21.876;2023-04-01T22:26:14;8.9;96.0
22676;DHT22;12521;43.310;21.876;2023-04-01T22:31:14;8.9;96.0
22676;DHT22;12521;43.310;21.876;2023-04-01T22:36:22;8.8;96.0
22676;DHT22;12521;43.310;21.876;2023-04-01T22:41:25;8.8;96.0
22676;DHT22;12521;43.310;21.876;2023-04-01T22:46:36;8.7;96.0
22676;DHT22;12521;43.310;21.876;2023-04-01T22:51:41;8.7;96.0
22676;DHT22;12521;43.310;21.876;2023-04-01T22:56:36;8.6;96.0
22676;DHT22;12521;43.310;21.876;2023-04-01T23:01:29;8.6;96.0
22676;DHT22;12521;43.310;21.876;2023-04-01T23:06:27;8.6;96.0
22676;DHT22;12521;43.310;21.876;2023-04-01T23:11:21;8.6;96.0
22676;DHT22;12521;43.310;21.876;2023-04-01T23:16:12;8.5;96.0
22676;DHT22;12521;43.310;21.876;2023-04-01T23:21:11;8.5;96.0
22676;DHT22;12521;43.310;21.876;2023-04-01T23:26:18;8.4;96.0
22676;DHT22;12521;43.310;21.876;2023-04-01T23:31:37;8.4;96.0
22676;DHT22;12521;43.310;21.876;2023-04-01T23:36:19;8.4;96.0
22676;DHT22;12521;43.310;21.876;2023-04-01T23:40:56;8.4;96.0
22676;DHT22;12521;43.310;21.876;2023-04-01T23:45:33;8.3;96.0
22676;DHT22;12521;43.310;21.876;2023-04-01T23:50:16;8.3;96.0
22676;DHT22;12521;43.310;21.876;2023-04-01T23:55:15;8.2;96.0
